createdAt,value
2019-05-01T00:02:08.214Z,7.80
2019-05-01T00:04:51.528Z,7.80
2019-05-01T00:07:23.010Z,7.80
2019-05-01T00:09:52.915Z,7.80
2019-05-01T00:12:23.889Z,7.80
2019-05-01T00:14:53.789Z,7.70
2019-05-01T00:17:27.575Z,7.70
2019-05-01T00:19:56.477Z,7.60
2019-05-01T00:22:26.445Z,7.60
2019-05-01T00:24:56.314Z,7.60
2019-05-01T00:27:26.363Z,7.60
2019-05-01T00:29:57.309Z,7.60
2019-05-01T00:32:27.276Z,7.60
2019-05-01T00:34:57.234Z,7.60
2019-05-01T00:37:27.096Z,7.60
2019-05-01T00:39:56.975Z,7.50
2019-05-01T00:42:26.930Z,7.60
2019-05-01T00:44:56.955Z,7.50
2019-05-01T00:47:26.857Z,7.50
2019-05-01T00:49:56.762Z,7.50
2019-05-01T00:52:26.672Z,7.50
2019-05-01T00:55:01.313Z,7.40
2019-05-01T00:57:39.873Z,7.40
2019-05-01T01:00:27.902Z,7.40
2019-05-01T01:02:58.042Z,7.40
2019-05-01T01:05:27.886Z,7.30
2019-05-01T01:07:58.847Z,7.30
2019-05-01T01:10:28.716Z,7.20
2019-05-01T01:12:58.605Z,7.20
2019-05-01T01:15:28.511Z,7.10
2019-05-01T01:18:01.363Z,7.10
2019-05-01T01:20:31.329Z,7.10
2019-05-01T01:23:01.173Z,7.10
2019-05-01T01:25:31.086Z,7.00
2019-05-01T01:28:00.956Z,7.00
2019-05-01T01:30:31.812Z,6.90
2019-05-01T01:33:01.734Z,6.90
2019-05-01T01:35:31.915Z,6.90
2019-05-01T01:38:01.813Z,6.90
2019-05-01T01:40:31.790Z,6.90
2019-05-01T01:43:19.494Z,6.90
2019-05-01T01:45:51.033Z,6.80
2019-05-01T01:48:21.063Z,6.80
2019-05-01T01:50:51.499Z,6.80
2019-05-01T01:53:22.298Z,6.70
2019-05-01T01:55:52.565Z,6.70
2019-05-01T01:58:22.969Z,6.70
2019-05-01T02:01:09.223Z,6.60
2019-05-01T02:03:34.142Z,6.70
2019-05-01T02:06:04.142Z,6.60
2019-05-01T02:08:34.075Z,6.50
2019-05-01T02:11:03.954Z,6.60
2019-05-01T02:13:33.871Z,6.60
2019-05-01T02:16:03.776Z,6.50
2019-05-01T02:18:33.672Z,6.50
2019-05-01T02:21:03.788Z,6.50
2019-05-01T02:23:33.661Z,6.50
2019-05-01T02:26:04.245Z,6.50
2019-05-01T02:28:42.040Z,6.40
2019-05-01T02:31:28.254Z,6.40
2019-05-01T02:33:55.915Z,6.40
2019-05-01T02:36:27.693Z,6.40
2019-05-01T02:39:00.042Z,6.40
2019-05-01T02:41:32.950Z,6.40
2019-05-01T02:44:05.751Z,6.40
2019-05-01T02:46:37.682Z,6.30
2019-05-01T02:49:13.261Z,6.40
2019-05-01T02:51:44.207Z,6.30
2019-05-01T02:54:15.982Z,6.30
2019-05-01T02:57:00.828Z,6.20
2019-05-01T02:59:33.439Z,6.30
2019-05-01T03:02:03.952Z,6.20
2019-05-01T03:04:34.750Z,6.20
2019-05-01T03:07:06.821Z,6.10
2019-05-01T03:09:38.413Z,6.10
2019-05-01T03:12:09.496Z,6.00
2019-05-01T03:14:42.267Z,6.10
2019-05-01T03:17:31.461Z,6.00
2019-05-01T03:20:03.927Z,6.00
2019-05-01T03:22:35.534Z,6.00
2019-05-01T03:25:07.482Z,6.00
2019-05-01T03:27:37.526Z,6.00
2019-05-01T03:30:07.913Z,6.00
2019-05-01T03:32:37.804Z,6.00
2019-05-01T03:35:08.257Z,6.00
2019-05-01T03:37:38.475Z,6.00
2019-05-01T03:40:12.230Z,6.00
2019-05-01T03:42:41.426Z,6.00
2019-05-01T03:45:11.715Z,6.00
2019-05-01T03:47:42.284Z,6.00
2019-05-01T03:50:12.291Z,5.90
2019-05-01T03:52:42.474Z,5.90
2019-05-01T03:55:12.451Z,6.00
2019-05-01T03:57:43.109Z,6.00
2019-05-01T04:00:14.822Z,6.00
2019-05-01T04:02:51.164Z,6.00
2019-05-01T04:05:21.080Z,6.00
2019-05-01T04:07:51.492Z,6.00
2019-05-01T04:10:22.011Z,6.00
2019-05-01T04:12:53.089Z,6.00
2019-05-01T04:15:23.020Z,6.00
2019-05-01T04:17:54.778Z,6.00
2019-05-01T04:20:24.956Z,6.10
2019-05-01T04:22:54.947Z,6.10
2019-05-01T04:25:25.787Z,6.10
2019-05-01T04:27:59.114Z,6.00
2019-05-01T04:30:37.219Z,6.10
2019-05-01T04:33:08.854Z,6.00
2019-05-01T04:35:52.701Z,6.10
2019-05-01T04:38:23.094Z,6.10
2019-05-01T04:40:53.074Z,6.20
2019-05-01T04:43:22.929Z,6.20
2019-05-01T04:45:53.272Z,6.20
2019-05-01T04:48:23.199Z,6.30
2019-05-01T04:50:53.578Z,6.40
2019-05-01T04:53:23.712Z,6.40
2019-05-01T04:55:54.434Z,6.40
2019-05-01T04:58:24.653Z,6.50
2019-05-01T05:00:54.624Z,6.60
2019-05-01T05:03:26.489Z,6.70
2019-05-01T05:05:57.446Z,6.70
2019-05-01T05:08:31.372Z,6.80
2019-05-01T05:11:03.371Z,6.90
2019-05-01T05:13:35.386Z,7.00
2019-05-01T05:16:14.431Z,7.00
2019-05-01T05:18:44.824Z,7.10
2019-05-01T05:21:15.012Z,7.20
2019-05-01T05:23:44.910Z,7.30
2019-05-01T05:26:15.410Z,7.30
2019-05-01T05:28:46.385Z,7.30
2019-05-01T05:31:16.846Z,7.40
2019-05-01T05:33:48.534Z,7.50
2019-05-01T05:36:20.062Z,7.50
2019-05-01T05:38:55.242Z,7.60
2019-05-01T05:41:26.239Z,7.60
2019-05-01T05:43:56.855Z,7.70
2019-05-01T05:46:26.856Z,7.80
2019-05-01T05:48:56.850Z,7.80
2019-05-01T05:51:33.342Z,7.80
2019-05-01T05:54:08.703Z,7.90
2019-05-01T05:56:42.166Z,7.90
2019-05-01T05:59:18.819Z,8.00
2019-05-01T06:01:56.481Z,8.00
2019-05-01T06:04:32.697Z,8.00
2019-05-01T06:07:11.943Z,8.10
2019-05-01T06:09:48.394Z,8.30
2019-05-01T06:12:22.362Z,8.50
2019-05-01T06:14:56.227Z,8.40
2019-05-01T06:17:28.429Z,8.60
2019-05-01T06:20:08.232Z,8.60
2019-05-01T06:22:40.738Z,8.80
2019-05-01T06:25:22.525Z,8.90
2019-05-01T06:27:50.675Z,8.90
2019-05-01T06:30:20.530Z,8.90
2019-05-01T06:32:50.429Z,9.20
2019-05-01T06:35:20.796Z,9.20
2019-05-01T06:37:56.001Z,9.30
2019-05-01T06:40:39.034Z,9.50
2019-05-01T06:43:13.141Z,9.60
2019-05-01T06:45:53.854Z,9.70
2019-05-01T06:48:25.374Z,9.90
2019-05-01T06:50:57.208Z,9.90
2019-05-01T06:53:27.459Z,9.80
2019-05-01T06:55:57.557Z,10.20
2019-05-01T06:58:27.650Z,10.10
2019-05-01T07:00:58.645Z,10.00
2019-05-01T07:03:28.773Z,10.20
2019-05-01T07:05:58.666Z,10.20
2019-05-01T07:08:29.437Z,10.10
2019-05-01T07:11:01.205Z,10.40
2019-05-01T07:13:35.461Z,10.50
2019-05-01T07:16:04.521Z,10.40
2019-05-01T07:18:35.498Z,10.40
2019-05-01T07:21:05.370Z,10.50
2019-05-01T07:23:35.266Z,10.60
2019-05-01T07:26:05.187Z,10.70
2019-05-01T07:28:36.699Z,10.90
2019-05-01T07:31:07.747Z,11.10
2019-05-01T07:33:37.722Z,11.20
2019-05-01T07:36:15.230Z,11.10
2019-05-01T07:38:41.210Z,11.00
2019-05-01T07:41:12.488Z,11.10
2019-05-01T07:43:59.604Z,11.30
2019-05-01T07:46:30.120Z,11.50
2019-05-01T07:49:00.625Z,11.80
2019-05-01T07:51:31.771Z,12.00
2019-05-01T07:54:04.123Z,12.00
2019-05-01T07:56:34.105Z,11.90
2019-05-01T07:59:04.414Z,11.80
2019-05-01T08:01:38.582Z,11.90
2019-05-01T08:04:08.459Z,11.80
2019-05-01T08:06:38.330Z,11.70
2019-05-01T08:09:11.270Z,11.70
2019-05-01T08:11:44.060Z,11.70
2019-05-01T08:14:16.627Z,11.70
2019-05-01T08:16:43.962Z,11.80
2019-05-01T08:19:27.398Z,12.10
2019-05-01T08:22:01.826Z,12.10
2019-05-01T08:24:30.357Z,12.00
2019-05-01T08:27:00.233Z,12.10
2019-05-01T08:29:41.895Z,12.30
2019-05-01T08:32:16.622Z,12.60
2019-05-01T08:34:49.231Z,12.50
2019-05-01T08:37:22.442Z,12.30
2019-05-01T08:39:50.330Z,12.20
2019-05-01T08:42:20.288Z,12.30
2019-05-01T08:45:05.189Z,12.60
2019-05-01T08:47:34.309Z,12.70
2019-05-01T08:50:08.100Z,12.60
2019-05-01T08:52:37.971Z,12.80
2019-05-01T08:55:09.324Z,13.10
2019-05-01T08:57:40.729Z,13.00
2019-05-01T09:00:14.233Z,12.90
2019-05-01T09:02:44.219Z,13.00
2019-05-01T09:05:28.507Z,13.30
2019-05-01T09:07:45.896Z,13.50
2019-05-01T09:10:17.108Z,13.60
2019-05-01T09:12:48.363Z,13.40
2019-05-01T09:15:20.080Z,13.20
2019-05-01T09:17:50.084Z,13.30
2019-05-01T09:20:21.494Z,13.30
2019-05-01T09:22:51.439Z,13.40
2019-05-01T09:25:23.878Z,13.60
2019-05-01T09:27:55.419Z,13.50
2019-05-01T09:30:29.917Z,13.40
2019-05-01T09:32:59.964Z,13.60
2019-05-01T09:35:30.058Z,13.60
2019-05-01T09:38:00.045Z,13.50
2019-05-01T09:40:30.178Z,13.50
2019-05-01T09:43:01.187Z,14.10
2019-05-01T09:45:31.276Z,14.00
2019-05-01T09:48:01.157Z,14.10
2019-05-01T09:50:32.687Z,14.20
2019-05-01T09:53:19.054Z,14.30
2019-05-01T09:55:50.566Z,14.30
2019-05-01T09:58:20.561Z,14.40
2019-05-01T10:00:52.709Z,14.50
2019-05-01T10:03:23.538Z,14.60
2019-05-01T10:05:53.500Z,14.80
2019-05-01T10:08:23.379Z,14.90
2019-05-01T10:10:53.306Z,14.70
2019-05-01T10:13:24.136Z,14.60
2019-05-01T10:15:54.210Z,14.60
2019-05-01T10:18:24.073Z,14.80
2019-05-01T10:20:54.052Z,14.70
2019-05-01T10:23:23.961Z,14.70
2019-05-01T10:25:55.461Z,14.80
2019-05-01T10:28:35.947Z,15.40
2019-05-01T10:31:11.881Z,15.40
2019-05-01T10:33:43.286Z,14.90
2019-05-01T10:36:18.730Z,14.80
2019-05-01T10:38:46.858Z,14.60
2019-05-01T10:41:16.981Z,14.50
2019-05-01T10:43:46.917Z,14.60
2019-05-01T10:46:16.820Z,14.90
2019-05-01T10:48:46.771Z,15.50
2019-05-01T10:51:16.744Z,15.60
2019-05-01T10:53:47.765Z,15.50
2019-05-01T10:56:17.689Z,15.80
2019-05-01T10:58:47.576Z,15.70
2019-05-01T11:01:19.143Z,15.50
2019-05-01T11:03:49.082Z,15.40
2019-05-01T11:06:19.323Z,15.70
2019-05-01T11:08:49.417Z,16.00
2019-05-01T11:11:19.354Z,16.10
2019-05-01T11:13:49.381Z,16.10
2019-05-01T11:16:19.235Z,16.20
2019-05-01T11:18:49.153Z,16.30
2019-05-01T11:21:19.115Z,16.10
2019-05-01T11:23:49.149Z,15.90
2019-05-01T11:26:19.102Z,15.70
2019-05-01T11:28:49.083Z,15.50
2019-05-01T11:31:20.623Z,15.40
2019-05-01T11:33:58.065Z,15.30
2019-05-01T11:36:33.363Z,15.20
2019-05-01T11:39:04.806Z,15.30
2019-05-01T11:41:36.463Z,15.20
2019-05-01T11:44:06.367Z,15.20
2019-05-01T11:46:36.281Z,15.20
2019-05-01T11:49:06.177Z,15.20
2019-05-01T11:51:36.072Z,15.20
2019-05-01T11:54:05.902Z,15.10
2019-05-01T11:56:35.803Z,15.00
2019-05-01T11:59:05.788Z,15.00
2019-05-01T12:01:35.864Z,14.90
2019-05-01T12:04:05.894Z,14.90
2019-05-01T12:06:35.923Z,14.90
2019-05-01T12:09:07.805Z,15.00
2019-05-01T12:11:40.355Z,15.00
2019-05-01T12:14:10.239Z,15.00
2019-05-01T12:16:54.063Z,15.00
2019-05-01T12:19:28.810Z,15.00
2019-05-01T12:21:58.769Z,15.10
2019-05-01T12:24:28.762Z,15.00
2019-05-01T12:26:58.767Z,15.10
2019-05-01T12:29:29.409Z,15.10
2019-05-01T12:31:59.290Z,15.10
2019-05-01T12:34:30.174Z,15.10
2019-05-01T12:37:16.917Z,15.10
2019-05-01T12:39:47.117Z,15.10
2019-05-01T12:42:21.356Z,15.20
2019-05-01T12:44:52.136Z,15.10
2019-05-01T12:47:23.547Z,15.00
2019-05-01T12:49:54.226Z,15.20
2019-05-01T12:52:41.870Z,15.30
2019-05-01T12:55:31.656Z,15.30
2019-05-01T12:58:01.577Z,15.30
2019-05-01T13:00:47.212Z,15.40
2019-05-01T13:03:17.127Z,15.50
2019-05-01T13:05:47.103Z,15.60
2019-05-01T13:08:17.234Z,15.70
2019-05-01T13:10:47.324Z,15.60
2019-05-01T13:13:17.306Z,15.50
2019-05-01T13:15:47.322Z,15.40
2019-05-01T13:18:17.207Z,15.40
2019-05-01T13:20:47.136Z,15.40
2019-05-01T13:23:17.010Z,15.30
2019-05-01T13:25:48.740Z,15.30
2019-05-01T13:28:20.196Z,15.30
2019-05-01T13:30:58.171Z,15.30
2019-05-01T13:33:28.036Z,15.20
2019-05-01T13:35:57.970Z,15.30
2019-05-01T13:38:27.956Z,15.30
2019-05-01T13:40:57.850Z,15.30
2019-05-01T13:43:27.771Z,15.30
2019-05-01T13:45:57.663Z,15.20
2019-05-01T13:48:27.729Z,15.30
2019-05-01T13:50:57.718Z,15.30
2019-05-01T13:53:28.600Z,15.30
2019-05-01T13:56:01.497Z,15.30
2019-05-01T13:58:31.370Z,15.30
2019-05-01T14:01:01.386Z,15.20
2019-05-01T14:03:31.377Z,15.30
2019-05-01T14:06:01.279Z,15.30
2019-05-01T14:08:31.339Z,15.40
2019-05-01T14:11:01.212Z,15.40
2019-05-01T14:13:31.345Z,15.50
2019-05-01T14:16:01.369Z,15.70
2019-05-01T14:18:31.242Z,15.90
2019-05-01T14:21:17.765Z,16.30
2019-05-01T14:23:52.228Z,16.60
2019-05-01T14:26:22.169Z,16.80
2019-05-01T14:28:52.251Z,16.60
2019-05-01T14:31:22.130Z,16.30
2019-05-01T14:33:52.056Z,16.10
2019-05-01T14:36:21.975Z,16.10
2019-05-01T14:38:51.850Z,16.00
2019-05-01T14:41:21.801Z,16.00
2019-05-01T14:43:51.699Z,16.10
2019-05-01T14:46:21.663Z,16.10
2019-05-01T14:48:51.544Z,16.40
2019-05-01T14:51:21.895Z,16.40
2019-05-01T14:53:51.966Z,16.50
2019-05-01T14:56:21.867Z,16.50
2019-05-01T14:58:51.731Z,16.60
2019-05-01T15:01:21.622Z,16.70
2019-05-01T15:03:51.573Z,16.80
2019-05-01T15:06:21.527Z,17.00
2019-05-01T15:08:52.618Z,17.00
2019-05-01T15:11:22.768Z,17.00
2019-05-01T15:13:54.227Z,16.90
2019-05-01T15:16:29.562Z,17.00
2019-05-01T15:19:01.047Z,16.70
2019-05-01T15:21:30.918Z,16.60
2019-05-01T15:24:00.807Z,16.80
2019-05-01T15:26:30.684Z,17.00
2019-05-01T15:29:00.635Z,17.30
2019-05-01T15:31:31.639Z,17.30
2019-05-01T15:34:01.621Z,17.00
2019-05-01T15:36:31.554Z,17.00
2019-05-01T15:39:02.333Z,16.90
2019-05-01T15:41:37.546Z,16.90
2019-05-01T15:44:17.248Z,17.20
2019-05-01T15:46:47.282Z,17.30
2019-05-01T15:49:17.192Z,17.30
2019-05-01T15:51:47.111Z,17.30
2019-05-01T15:54:17.594Z,17.30
2019-05-01T15:56:47.610Z,17.00
2019-05-01T15:59:17.509Z,16.70
2019-05-01T16:01:47.518Z,16.60
2019-05-01T16:04:17.418Z,16.40
2019-05-01T16:06:47.335Z,16.30
2019-05-01T16:09:17.359Z,16.30
2019-05-01T16:12:05.484Z,16.20
2019-05-01T16:14:36.004Z,16.20
2019-05-01T16:17:06.127Z,16.20
2019-05-01T16:19:36.002Z,16.00
2019-05-01T16:22:06.133Z,16.00
2019-05-01T16:24:36.051Z,15.90
2019-05-01T16:27:06.146Z,15.90
2019-05-01T16:29:36.096Z,15.80
2019-05-01T16:32:06.290Z,15.80
2019-05-01T16:34:36.206Z,15.70
2019-05-01T16:37:06.765Z,15.60
2019-05-01T16:39:47.286Z,15.60
2019-05-01T16:42:17.228Z,15.60
2019-05-01T16:44:47.437Z,15.50
2019-05-01T16:47:20.144Z,15.50
2019-05-01T16:49:50.002Z,15.40
2019-05-01T16:52:21.474Z,15.40
2019-05-01T16:54:59.027Z,15.40
2019-05-01T16:57:22.842Z,15.40
2019-05-01T16:59:52.950Z,15.30
2019-05-01T17:02:41.181Z,15.30
2019-05-01T17:05:18.670Z,15.30
2019-05-01T17:07:53.199Z,15.30
2019-05-01T17:10:25.050Z,15.30
2019-05-01T17:12:56.456Z,15.20
2019-05-01T17:15:28.154Z,15.20
2019-05-01T17:17:58.077Z,15.20
2019-05-01T17:20:28.283Z,15.20
2019-05-01T17:22:58.301Z,15.20
2019-05-01T17:25:29.615Z,15.10
2019-05-01T17:28:02.812Z,15.10
2019-05-01T17:30:43.686Z,15.00
2019-05-01T17:33:19.520Z,14.90
2019-05-01T17:35:46.089Z,14.90
2019-05-01T17:38:16.117Z,14.80
2019-05-01T17:40:47.341Z,14.80
2019-05-01T17:43:18.225Z,14.70
2019-05-01T17:45:48.124Z,14.70
2019-05-01T17:48:18.674Z,14.60
2019-05-01T17:50:48.606Z,14.60
2019-05-01T17:53:18.542Z,14.60
2019-05-01T17:55:48.484Z,14.50
2019-05-01T17:58:18.357Z,14.50
2019-05-01T18:00:58.738Z,14.40
2019-05-01T18:03:39.656Z,14.30
2019-05-01T18:06:11.166Z,14.30
2019-05-01T18:08:41.111Z,14.20
2019-05-01T18:11:14.278Z,14.10
2019-05-01T18:13:42.910Z,14.00
2019-05-01T18:16:12.959Z,14.00
2019-05-01T18:18:42.978Z,13.90
2019-05-01T18:21:13.223Z,13.80
2019-05-01T18:24:01.157Z,13.80
2019-05-01T18:26:38.873Z,13.80
2019-05-01T18:29:14.582Z,13.70
2019-05-01T18:31:44.743Z,13.70
2019-05-01T18:34:14.720Z,13.60
2019-05-01T18:37:03.660Z,13.60
2019-05-01T18:39:38.110Z,13.50
2019-05-01T18:42:14.978Z,13.50
2019-05-01T18:44:47.444Z,13.40
2019-05-01T18:47:16.636Z,13.40
2019-05-01T18:49:46.574Z,13.30
2019-05-01T18:52:16.704Z,13.20
2019-05-01T18:54:46.579Z,13.20
2019-05-01T18:57:16.554Z,13.20
2019-05-01T18:59:46.466Z,13.10
2019-05-01T19:02:20.611Z,13.00
2019-05-01T19:04:47.940Z,13.00
2019-05-01T19:07:17.793Z,12.90
2019-05-01T19:09:47.728Z,12.90
2019-05-01T19:12:17.921Z,12.80
2019-05-01T19:14:47.966Z,12.80
2019-05-01T19:17:17.953Z,12.80
2019-05-01T19:19:48.076Z,12.70
2019-05-01T19:22:18.023Z,12.70
2019-05-01T19:24:48.097Z,12.60
2019-05-01T19:27:20.845Z,12.60
2019-05-01T19:29:51.234Z,12.50
2019-05-01T19:32:22.268Z,12.50
2019-05-01T19:34:53.311Z,12.40
2019-05-01T19:37:25.857Z,12.40
2019-05-01T19:39:55.767Z,12.30
2019-05-01T19:42:25.684Z,12.30
2019-05-01T19:44:57.431Z,12.30
2019-05-01T19:47:27.343Z,12.20
2019-05-01T19:50:06.706Z,12.20
2019-05-01T19:52:32.514Z,12.20
2019-05-01T19:55:06.209Z,12.10
2019-05-01T19:57:33.026Z,12.00
2019-05-01T20:00:03.844Z,12.00
2019-05-01T20:02:34.112Z,12.00
2019-05-01T20:05:06.414Z,11.90
2019-05-01T20:07:36.747Z,11.80
2019-05-01T20:10:08.432Z,11.80
2019-05-01T20:12:38.413Z,11.70
2019-05-01T20:15:08.506Z,11.70
2019-05-01T20:17:38.512Z,11.60
2019-05-01T20:20:08.504Z,11.60
2019-05-01T20:22:38.466Z,11.50
2019-05-01T20:25:08.490Z,11.50
2019-05-01T20:27:40.170Z,11.40
2019-05-01T20:30:10.262Z,11.50
2019-05-01T20:32:40.110Z,11.40
2019-05-01T20:35:09.972Z,11.40
2019-05-01T20:37:39.997Z,11.30
2019-05-01T20:40:11.599Z,11.20
2019-05-01T20:42:41.781Z,11.20
2019-05-01T20:45:17.719Z,11.20
2019-05-01T20:47:46.089Z,11.20
2019-05-01T20:50:14.987Z,11.10
2019-05-01T20:52:44.854Z,11.10
2019-05-01T20:55:15.883Z,11.10
2019-05-01T20:57:47.314Z,11.10
2019-05-01T21:00:21.038Z,11.00
2019-05-01T21:02:51.053Z,11.00
2019-05-01T21:05:34.717Z,11.00
2019-05-01T21:08:12.444Z,11.00
2019-05-01T21:10:50.963Z,11.00
2019-05-01T21:13:23.046Z,11.00
2019-05-01T21:15:56.421Z,10.80
2019-05-01T21:18:26.041Z,10.70
2019-05-01T21:20:55.564Z,10.70
2019-05-01T21:23:25.533Z,10.60
2019-05-01T21:25:55.431Z,10.60
2019-05-01T21:28:25.288Z,10.60
2019-05-01T21:30:55.260Z,10.60
2019-05-01T21:33:25.138Z,10.60
2019-05-01T21:35:55.003Z,10.60
2019-05-01T21:38:24.907Z,10.50
2019-05-01T21:40:54.827Z,10.50
2019-05-01T21:43:27.928Z,10.40
2019-05-01T21:45:56.247Z,10.40
2019-05-01T21:48:26.173Z,10.40
2019-05-01T21:50:57.961Z,10.40
2019-05-01T21:53:27.578Z,10.30
2019-05-01T21:55:57.505Z,10.30
2019-05-01T21:58:30.160Z,10.20
2019-05-01T22:00:59.657Z,10.10
2019-05-01T22:03:29.966Z,9.90
2019-05-01T22:05:59.871Z,9.80
2019-05-01T22:08:29.740Z,9.80
2019-05-01T22:11:01.852Z,9.70
2019-05-01T22:13:31.327Z,9.80
2019-05-01T22:16:02.822Z,9.60
2019-05-01T22:18:34.279Z,9.40
2019-05-01T22:21:15.139Z,9.50
2019-05-01T22:24:03.022Z,9.60
2019-05-01T22:26:43.863Z,9.60
2019-05-01T22:29:15.269Z,9.60
2019-05-01T22:31:52.850Z,9.60
2019-05-01T22:34:22.943Z,9.60
2019-05-01T22:36:54.175Z,9.60
2019-05-01T22:39:25.072Z,9.60
2019-05-01T22:41:55.006Z,9.60
2019-05-01T22:44:26.119Z,9.50
2019-05-01T22:46:56.155Z,9.50
2019-05-01T22:49:26.065Z,9.40
2019-05-01T22:51:55.929Z,9.40
2019-05-01T22:54:25.834Z,9.40
2019-05-01T22:56:55.765Z,9.40
2019-05-01T22:59:25.630Z,9.40
2019-05-01T23:01:57.145Z,9.40
2019-05-01T23:04:27.549Z,9.30
2019-05-01T23:06:57.594Z,9.30
2019-05-01T23:09:30.406Z,9.20
2019-05-01T23:12:00.514Z,9.20
2019-05-01T23:14:30.649Z,9.20
2019-05-01T23:17:03.330Z,9.10
2019-05-01T23:19:33.699Z,9.10
2019-05-01T23:22:03.883Z,9.10
2019-05-01T23:24:33.853Z,9.00
2019-05-01T23:27:03.864Z,9.00
2019-05-01T23:29:33.763Z,9.00
2019-05-01T23:32:03.931Z,8.90
2019-05-01T23:34:34.101Z,8.90
2019-05-01T23:37:04.407Z,8.90
2019-05-01T23:39:39.765Z,8.80
2019-05-01T23:42:05.787Z,8.80
2019-05-01T23:44:38.184Z,8.80
2019-05-01T23:47:07.291Z,8.80
2019-05-01T23:49:38.053Z,8.70
2019-05-01T23:52:07.941Z,8.70
2019-05-01T23:54:37.814Z,8.70
2019-05-01T23:57:07.718Z,8.70
2019-05-01T23:59:37.631Z,8.60
